Time;durP1;ratioP1;P1;durP2;ratioP2;P2;SDS_P1;SDS_P2;PMS_P1;PMS_P2;Temp;Humidity;BMP_temperature;BMP_pressure;BME280_temperature;BME280_humidity;BME280_pressure;Samples;Min_cycle;Max_cycle;Signal;HPM_P1;HPM_P2
2021/06/04 00:01:37;;;;;;;26.75;22.80;;;20.00;99.90;;;20.55;67.86;101979.34;5112674;28;20050;-71
2021/06/04 00:04:07;;;;;;;33.38;24.45;;;20.00;99.90;;;20.08;66.30;101877.59;5112865;28;20120;-71
2021/06/04 00:06:37;;;;;;;35.67;25.58;;;20.10;99.90;;;20.81;66.16;101983.97;5112950;28;20154;-71
2021/06/04 00:09:09;;;;;;;31.55;24.48;;;20.30;99.90;;;20.69;67.20;101985.22;5112842;28;20044;-71
2021/06/04 00:11:40;;;;;;;34.50;24.45;;;20.30;99.90;;;20.55;68.83;101974.84;5112658;28;20054;-71
2021/06/04 00:14:13;;;;;;;34.67;24.27;;;20.10;99.90;;;20.50;68.52;101981.25;5112756;28;20395;-71
2021/06/04 00:16:46;;;;;;;29.38;23.35;;;20.10;99.90;;;20.59;66.95;101989.97;5112788;28;20047;-71
2021/06/04 00:19:17;;;;;;;31.75;24.23;;;20.10;99.90;;;20.68;66.40;101987.00;5112772;28;20048;-71
2021/06/04 00:21:49;;;;;;;32.80;24.48;;;20.20;99.90;;;20.73;66.23;101983.31;5112775;28;20139;-71
2021/06/04 00:24:18;;;;;;;32.75;24.02;;;20.20;99.90;;;20.60;67.66;101983.66;5112687;28;20055;-71
2021/06/04 00:26:49;;;;;;;30.10;23.45;;;20.10;99.90;;;20.55;68.36;101990.97;5112659;28;20044;-72
2021/06/04 00:29:17;;;;;;;34.70;25.30;;;20.10;99.90;;;20.46;68.45;101985.84;5094335;28;20051;-71
2021/06/04 00:31:50;;;;;;;33.03;24.88;;;20.00;99.90;;;20.44;68.41;101982.31;5112483;28;20047;-71
2021/06/04 00:34:20;;;;;;;29.52;24.45;;;20.00;99.90;;;20.49;67.54;101990.25;5097760;28;20139;-71
2021/06/04 00:36:48;;;;;;;37.83;24.67;;;20.00;99.90;;;20.52;66.53;101980.28;5116427;28;20101;-71
2021/06/04 00:39:22;;;;;;;34.88;25.67;;;20.10;99.90;;;20.59;66.55;101983.69;5116585;28;20047;-71
2021/06/04 00:41:54;;;;;;;34.47;26.27;;;20.10;99.90;;;20.48;67.44;101983.09;5097911;28;20508;-71
2021/06/04 00:44:23;;;;;;;29.38;23.27;;;20.00;99.90;;;20.36;68.87;101988.81;5098415;28;20047;-71
2021/06/04 00:46:53;;;;;;;26.42;22.67;;;19.90;99.90;;;20.14;68.95;101982.19;5097992;28;20088;-71
2021/06/04 00:49:23;;;;;;;29.38;22.85;;;19.70;99.90;;;20.14;69.94;101982.19;5115965;28;20058;-71
2021/06/04 00:51:58;;;;;;;26.65;22.15;;;19.60;99.90;;;20.04;70.16;101970.81;5116550;28;20047;-72
2021/06/04 00:54:27;;;;;;;27.30;21.98;;;19.70;99.90;;;20.05;70.09;101988.72;5098043;28;20062;-71
2021/06/04 00:56:58;;;;;;;;;;;19.60;99.90;;;19.93;69.82;101978.28;5098242;28;20395;-71
2021/06/04 00:59:35;;;;;;;32.03;24.17;;;19.60;99.90;;;19.93;70.13;101977.38;5097507;28;19923;-71
2021/06/04 01:02:09;;;;;;;32.95;24.17;;;19.50;99.90;;;19.99;69.67;101966.47;5097794;28;20044;-71
2021/06/04 01:04:38;;;;;;;30.92;24.67;;;19.50;99.90;;;19.75;70.43;101950.06;5097791;28;20066;-71
2021/06/04 01:07:12;;;;;;;31.50;25.40;;;19.40;99.90;;;20.07;69.70;101975.25;5097592;28;20515;-71
2021/06/04 01:10:16;;;;;;;33.92;27.70;;;19.50;99.90;;;20.16;69.18;101973.19;5097506;28;20040;-71
2021/06/04 01:12:53;;;;;;;30.63;25.02;;;19.60;99.90;;;20.07;69.90;101965.38;5097062;28;20052;-71
2021/06/04 01:15:38;;;;;;;33.63;25.85;;;19.60;99.90;;;20.06;70.16;101966.28;5097811;28;20523;-71
2021/06/04 01:18:14;;;;;;;30.63;25.23;;;19.60;99.90;;;19.94;70.40;101982.72;5097164;28;20050;-71
2021/06/04 01:20:49;;;;;;;33.08;25.15;;;19.40;99.90;;;19.92;70.24;101970.25;5115599;28;20092;-71
2021/06/04 01:23:56;;;;;;;36.50;25.52;;;19.40;99.90;;;19.94;69.94;101963.91;5115667;28;20054;-71
2021/06/04 01:26:32;;;;;;;35.67;25.05;;;19.40;99.90;;;20.04;69.33;101970.81;5097404;28;20063;-71
2021/06/04 01:29:06;;;;;;;33.47;24.65;;;19.50;99.90;;;19.90;70.44;101970.28;5097391;28;20071;-71
2021/06/04 01:31:42;;;;;;;30.33;25.17;;;19.40;99.90;;;19.88;72.05;101969.44;5115277;28;20046;-71
2021/06/04 01:34:16;;;;;;;33.88;24.98;;;19.40;99.90;;;19.85;71.53;101974.88;5097175;28;20082;-71
2021/06/04 01:36:55;;;;;;;32.40;24.88;;;19.40;99.90;;;19.62;71.94;101926.25;5096836;28;20057;-70
2021/06/04 01:39:29;;;;;;;32.28;24.65;;;19.40;99.90;;;19.87;72.23;101967.69;5115494;28;20054;-71
2021/06/04 01:42:03;;;;;;;35.58;25.33;;;19.30;99.90;;;19.93;71.33;101950.53;5096752;28;20043;-71
2021/06/04 01:44:38;;;;;;;32.45;24.48;;;19.40;99.90;;;20.03;70.61;101947.56;5096525;28;20384;-71
2021/06/04 01:47:11;;;;;;;34.47;24.83;;;19.50;99.90;;;20.10;70.26;101946.47;5096921;28;20155;-71
2021/06/04 01:49:49;;;;;;;31.02;23.52;;;19.60;99.90;;;20.14;69.43;101961.59;5115087;28;20036;-71
2021/06/04 01:52:25;;;;;;;31.85;24.83;;;19.70;99.90;;;20.20;68.70;101961.47;5096904;28;20410;-71
2021/06/04 01:54:58;;;;;;;31.35;24.40;;;19.70;99.90;;;20.29;68.67;101957.63;5115191;28;20044;-71
2021/06/04 01:57:38;;;;;;;33.15;23.65;;;19.80;99.90;;;20.31;68.77;101963.84;5115235;28;20051;-71
2021/06/04 02:00:10;;;;;;;28.38;22.35;;;19.90;99.90;;;20.21;68.47;101965.91;5096818;28;20401;-71
2021/06/04 02:02:45;;;;;;;32.03;24.83;;;19.80;99.90;;;20.13;68.67;101959.81;5115330;28;20477;-71
2021/06/04 02:05:33;;;;;;;36.28;26.42;;;19.80;99.90;;;20.11;68.93;101956.28;5096672;28;20493;-71
2021/06/04 02:08:06;;;;;;;23.88;20.98;;;19.70;99.90;;;19.95;69.99;101959.41;5096674;28;20054;-71
2021/06/04 02:10:42;;;;;;;22.05;18.73;;;19.50;99.90;;;19.88;69.77;101972.13;5096531;28;20079;-71
2021/06/04 02:13:13;;;;;;;33.55;24.50;;;19.50;99.90;;;19.86;69.38;101971.25;5096582;28;20051;-71
2021/06/04 02:16:06;;;;;;;32.35;25.27;;;19.40;99.90;;;19.82;68.85;101974.97;5114717;28;20105;-71
2021/06/04 02:18:44;;;;;;;34.53;26.17;;;19.40;99.90;;;19.77;68.60;101960.75;5096567;28;20050;-71
2021/06/04 02:21:32;;;;;;;38.85;26.77;;;19.30;99.90;;;19.79;68.45;101965.19;5096002;28;20062;-71
2021/06/04 02:24:09;;;;;;;37.75;27.48;;;19.40;99.90;;;19.82;68.31;101964.25;5096228;28;20051;-71
2021/06/04 02:26:50;;;;;;;36.72;27.17;;;19.40;99.90;;;19.80;68.60;101968.75;5095976;28;20051;-71
2021/06/04 02:29:26;;;;;;;34.15;26.17;;;19.40;99.90;;;19.82;68.44;101972.28;5114446;28;20059;-71
2021/06/04 02:32:17;;;;;;;36.90;27.95;;;19.30;99.90;;;19.76;68.66;101965.25;5096102;28;20043;-71
2021/06/04 02:34:51;;;;;;;34.35;26.05;;;19.30;99.90;;;19.60;69.42;101941.50;5114351;28;20130;-71
2021/06/04 02:37:27;;;;;;;36.25;25.70;;;19.30;99.90;;;19.71;69.71;101960.91;5095993;28;20057;-71
2021/06/04 02:40:08;;;;;;;36.03;25.45;;;19.30;99.90;;;18.99;70.62;101860.69;5095966;28;20104;-71
2021/06/04 02:42:43;;;;;;;35.40;24.98;;;19.10;99.90;;;19.39;71.17;101960.81;5114703;28;20074;-71
2021/06/04 02:45:23;;;;;;;36.80;26.85;;;18.90;99.90;;;19.26;71.61;101959.28;5095836;28;20138;-71
2021/06/04 02:47:54;;;;;;;;;;;18.80;99.90;;;19.23;72.09;101964.72;5114354;28;20097;-71
2021/06/04 02:50:30;;;;;;;34.83;25.17;;;18.80;99.90;;;19.18;72.46;101963.94;5095984;28;19919;-71
2021/06/04 02:53:21;;;;;;;37.65;27.58;;;18.70;99.90;;;18.98;74.22;101955.44;5095808;28;20460;-71
2021/06/04 02:56:19;;;;;;;34.88;26.83;;;18.50;99.90;;;19.10;73.36;101957.88;5094629;28;20055;-71
2021/06/04 02:58:51;;;;;;;35.53;27.52;;;18.60;99.90;;;19.08;72.48;101952.53;5095800;28;20054;-71
2021/06/04 03:01:23;;;;;;;36.92;26.83;;;18.60;99.90;;;18.96;72.62;101958.16;5113552;28;20485;-71
2021/06/04 03:03:57;;;;;;;37.92;27.02;;;18.50;99.90;;;18.79;74.41;101944.25;5095489;28;20048;-71
2021/06/04 03:06:34;;;;;;;32.22;25.88;;;18.40;99.90;;;19.00;74.91;101958.97;5113855;28;20046;-71
2021/06/04 03:09:07;;;;;;;35.75;26.27;;;18.50;99.90;;;19.04;74.92;101966.94;5095505;28;20134;-71
2021/06/04 03:11:36;;;;;;;36.47;26.10;;;18.60;99.90;;;19.14;74.73;101962.25;5113401;28;20043;-71
2021/06/04 03:14:08;;;;;;;38.00;26.73;;;18.70;99.90;;;19.22;73.91;101962.97;5113210;28;20458;-71
2021/06/04 03:16:41;;;;;;;44.03;30.50;;;18.80;99.90;;;19.34;72.68;101957.34;5095386;28;20051;-71
2021/06/04 03:19:14;;;;;;;46.60;30.80;;;18.90;99.90;;;19.41;71.93;101975.06;5095216;28;20450;-71
2021/06/04 03:21:48;;;;;;;42.92;28.60;;;19.00;99.90;;;19.43;72.18;101954.47;5095212;28;20055;-71
2021/06/04 03:24:20;;;;;;;38.72;28.65;;;19.00;99.90;;;18.90;73.71;101876.06;5113465;28;20079;-71
2021/06/04 03:26:49;;;;;;;44.05;29.17;;;18.90;99.90;;;19.44;74.00;101959.78;5094947;28;20101;-71
2021/06/04 03:29:19;;;;;;;45.35;29.02;;;18.90;99.90;;;19.53;74.13;101953.31;5095069;28;20713;-71
2021/06/04 03:31:56;;;;;;;42.85;30.20;;;19.00;99.90;;;19.53;73.24;101962.25;5094646;28;20071;-71
2021/06/04 03:34:25;;;;;;;40.40;29.60;;;19.10;99.90;;;19.47;73.10;101953.47;5095326;28;20051;-72
2021/06/04 03:36:57;;;;;;;38.47;27.23;;;19.00;99.90;;;19.23;75.16;101952.19;5112848;28;20043;-71
2021/06/04 03:39:30;;;;;;;38.55;27.23;;;18.80;99.90;;;19.30;75.38;101959.16;5094914;28;20070;-72
2021/06/04 03:42:01;;;;;;;33.13;26.38;;;18.80;99.90;;;19.24;75.04;101953.09;5095039;28;20113;-71
2021/06/04 03:44:33;;;;;;;38.67;29.50;;;18.90;99.90;;;19.40;74.65;101957.19;5094734;28;20143;-71
2021/06/04 03:47:03;;;;;;;37.33;27.15;;;18.90;99.90;;;19.40;74.38;101954.50;5112819;28;20035;-71
2021/06/04 03:49:35;;;;;;;34.65;25.15;;;18.90;99.90;;;19.41;74.85;101951.81;5094730;28;20085;-71
2021/06/04 03:52:08;;;;;;;34.42;25.05;;;18.90;99.90;;;19.50;74.98;101956.06;5113025;28;20484;-71
2021/06/04 03:54:41;;;;;;;38.70;26.92;;;19.00;99.90;;;19.50;74.69;101961.44;5113087;28;20413;-72
2021/06/04 03:57:14;;;;;;;34.35;26.00;;;19.10;99.90;;;19.69;74.41;101962.75;5112615;28;20040;-71
2021/06/04 03:59:43;;;;;;;33.45;25.50;;;19.20;99.90;;;19.63;73.79;101965.56;5113006;28;20044;-71
2021/06/04 04:02:17;;;;;;;35.35;26.98;;;19.20;99.90;;;19.50;73.36;101956.97;5094572;28;20410;-71
2021/06/04 04:04:46;;;;;;;47.03;32.58;;;19.10;99.90;;;19.56;72.55;101972.03;5094716;28;20044;-71
2021/06/04 04:07:14;;;;;;;44.97;32.30;;;19.10;99.90;;;19.63;72.04;101970.94;5096639;28;20054;-71
2021/06/04 04:09:42;;;;;;;47.15;33.22;;;19.20;99.90;;;19.66;71.59;101963.72;5116906;28;20104;-71
2021/06/04 04:12:11;;;;;;;47.35;33.50;;;19.20;99.90;;;19.70;71.32;101973.44;5117029;28;20043;-71
2021/06/04 04:14:41;;;;;;;48.25;34.47;;;19.20;99.90;;;19.70;71.23;101965.41;5098932;28;20044;-71
2021/06/04 04:17:09;;;;;;;50.17;34.15;;;19.30;99.90;;;19.72;71.14;101976.13;5098584;28;20051;-71
2021/06/04 04:19:38;;;;;;;49.75;33.47;;;19.30;99.90;;;19.66;71.02;101950.31;5117051;28;20048;-71
2021/06/04 04:22:07;;;;;;;50.40;32.85;;;19.30;99.90;;;19.80;70.82;101976.81;5116894;28;20477;-71
2021/06/04 04:24:40;;;;;;;43.70;31.55;;;19.40;99.90;;;19.79;71.64;101986.66;5116872;28;20058;-71
2021/06/04 04:27:10;;;;;;;45.33;32.38;;;19.30;99.90;;;19.63;72.07;101971.84;5116456;28;20063;-71
2021/06/04 04:29:38;;;;;;;40.45;29.50;;;19.20;99.90;;;19.53;73.01;101977.47;5116817;28;20101;-71
2021/06/04 04:32:12;;;;;;;45.72;32.40;;;19.10;99.90;;;19.50;73.54;101999.00;5116654;28;20047;-71
2021/06/04 04:34:43;;;;;;;45.92;31.35;;;19.10;99.90;;;19.50;73.22;101983.78;5098389;28;20439;-71
2021/06/04 04:37:14;;;;;;;48.42;33.95;;;19.10;99.90;;;19.25;73.32;101981.66;5116397;28;20048;-70
2021/06/04 04:39:46;;;;;;;38.88;29.85;;;18.90;99.90;;;19.00;74.66;101965.22;5116398;28;20055;-72
2021/06/04 04:42:18;;;;;;;40.75;30.90;;;18.70;99.90;;;19.15;77.16;101985.47;5116383;28;20130;-71
2021/06/04 04:44:51;;;;;;;43.28;31.08;;;18.60;99.90;;;18.78;77.90;101985.34;5116373;28;20477;-72
2021/06/04 04:47:23;;;;;;;48.33;34.08;;;18.30;99.90;;;18.55;79.51;101984.91;5116462;28;20044;-71
2021/06/04 04:49:53;;;;;;;49.63;34.25;;;18.10;99.90;;;18.54;79.17;101981.34;5116494;28;20088;-71
2021/06/04 04:52:22;;;;;;;49.75;35.47;;;18.00;99.90;;;18.72;79.70;101986.34;5116187;28;20069;-71
2021/06/04 04:54:55;;;;;;;48.42;34.72;;;18.20;99.90;;;19.00;78.87;101993.84;5097839;28;20039;-71
2021/06/04 04:57:24;;;;;;;55.95;35.00;;;18.40;99.90;;;19.17;77.22;101991.69;5116489;28;20052;-71
2021/06/04 04:59:53;;;;;;;49.67;33.30;;;18.70;99.90;;;19.40;75.91;101997.44;5115811;28;20054;-71
2021/06/04 05:02:21;;;;;;;51.65;32.95;;;18.90;99.90;;;19.58;74.52;101991.66;5116297;28;20051;-71
2021/06/04 05:04:51;;;;;;;46.88;32.60;;;19.10;99.90;;;19.70;74.17;101992.25;5115643;28;20151;-71
2021/06/04 05:07:20;;;;;;;46.20;31.42;;;19.20;99.90;;;19.89;74.71;101992.69;5097920;28;20043;-71
2021/06/04 05:09:48;;;;;;;49.58;33.20;;;19.40;99.90;;;20.00;74.54;101996.00;5116074;28;20040;-71
2021/06/04 05:12:16;;;;;;;43.65;32.08;;;19.50;99.90;;;20.11;74.06;102009.16;5115677;28;20077;-71
2021/06/04 05:14:44;;;;;;;48.05;33.70;;;19.70;99.90;;;20.22;73.58;102008.00;5097430;28;20051;-71
2021/06/04 05:17:13;;;;;;;44.35;33.65;;;19.80;99.90;;;20.38;72.63;102003.09;5097491;28;20138;-71
2021/06/04 05:19:43;;;;;;;44.38;32.00;;;19.90;99.90;;;19.82;71.24;101898.91;5114781;28;20104;-71
2021/06/04 05:22:13;;;;;;;47.42;33.05;;;20.00;99.90;;;20.54;70.98;102010.72;5115865;28;20134;-71
2021/06/04 05:24:41;;;;;;;45.00;33.00;;;20.10;99.90;;;20.60;70.88;102018.63;5115664;28;20043;-71
2021/06/04 05:27:10;;;;;;;46.55;33.22;;;20.20;99.90;;;20.77;70.83;102011.88;5097134;28;20044;-71
2021/06/04 05:29:38;;;;;;;45.55;33.53;;;20.30;99.90;;;20.75;69.84;102000.28;5115266;28;20401;-71
2021/06/04 05:32:08;;;;;;;49.80;33.25;;;20.40;99.90;;;20.91;69.62;102039.25;5115191;28;20396;-72
2021/06/04 05:34:36;;;;;;;43.35;33.00;;;20.50;99.90;;;20.92;69.72;102022.22;5115283;28;20105;-72
2021/06/04 05:37:06;;;;;;;47.60;34.63;;;20.50;99.90;;;21.04;69.64;102020.06;5115282;28;20071;-71
2021/06/04 05:39:36;;;;;;;46.78;33.80;;;20.60;99.90;;;21.07;69.33;102029.88;5114963;28;20055;-71
2021/06/04 05:42:07;;;;;;;47.53;35.20;;;20.70;99.90;;;20.97;69.13;101998.72;5115148;28;20164;-71
2021/06/04 05:44:37;;;;;;;45.83;34.25;;;20.70;99.90;;;21.15;69.22;102019.78;5097245;28;20058;-71
2021/06/04 05:47:13;;;;;;;48.70;35.50;;;20.70;99.90;;;21.23;69.04;102033.88;5114988;28;20523;-71
2021/06/04 05:49:41;;;;;;;48.60;34.65;;;20.70;99.90;;;21.30;68.85;102013.91;5115193;28;20048;-71
2021/06/04 05:52:12;;;;;;;50.45;34.78;;;20.80;99.90;;;21.24;68.42;101987.19;5096633;28;20051;-71
2021/06/04 05:54:44;;;;;;;44.92;35.03;;;20.90;99.90;;;21.46;68.12;102012.53;5115049;28;20462;-71
2021/06/04 05:57:13;;;;;;;50.80;33.90;;;21.00;99.90;;;21.43;67.70;102000.03;5115486;28;20054;-71
2021/06/04 05:59:42;;;;;;;44.38;34.35;;;21.00;99.90;;;21.52;67.60;102009.66;5096546;28;20077;-71
2021/06/04 06:02:11;;;;;;;49.13;34.83;;;21.10;99.90;;;21.64;67.89;102011.06;5114898;28;20097;-71
2021/06/04 06:04:41;;;;;;;46.72;34.53;;;21.20;99.90;;;21.73;68.01;102013.47;5114925;28;20454;-71
2021/06/04 06:07:09;;;;;;;50.20;36.88;;;21.30;99.90;;;21.85;68.03;102018.50;5114534;28;20055;-71
2021/06/04 06:09:37;;;;;;;51.85;37.03;;;21.40;99.90;;;21.94;67.84;102016.38;5114465;28;20100;-71
2021/06/04 06:12:08;;;;;;;52.15;36.38;;;21.50;99.90;;;21.83;67.22;101983.53;5114614;28;20138;-71
2021/06/04 06:14:36;;;;;;;52.38;36.38;;;21.60;99.90;;;22.09;66.67;102018.56;5114678;28;20043;-71
2021/06/04 06:17:04;;;;;;;53.38;35.85;;;21.70;99.90;;;22.08;66.72;102002.44;5114486;28;20047;-71
2021/06/04 06:19:32;;;;;;;46.67;34.78;;;21.70;99.90;;;22.30;66.31;102027.72;5096254;28;20419;-71
2021/06/04 06:22:00;;;;;;;46.17;34.63;;;21.80;99.90;;;22.39;65.48;102022.03;5114491;28;20051;-71
2021/06/04 06:24:28;;;;;;;47.90;34.97;;;21.90;99.90;;;22.30;65.60;102004.34;5114163;28;20040;-72
2021/06/04 06:26:57;;;;;;;48.13;36.40;;;22.00;99.90;;;22.49;66.04;102030.69;5114755;28;20476;-72
2021/06/04 06:29:29;;;;;;;55.33;38.20;;;22.00;99.90;;;22.61;66.11;102027.59;5096251;28;20047;-72
2021/06/04 06:31:59;;;;;;;56.30;39.15;;;22.10;99.90;;;22.71;65.85;102029.00;5114227;28;20442;-72
2021/06/04 06:34:27;;;;;;;47.93;35.33;;;22.30;99.90;;;22.74;65.71;102029.81;5095861;28;20100;-71
2021/06/04 06:36:56;;;;;;;49.30;35.88;;;22.40;99.90;;;22.89;65.15;102034.63;5114204;28;20043;-71
2021/06/04 06:39:29;;;;;;;46.78;36.67;;;22.50;99.90;;;22.93;65.09;102032.69;5114340;28;20055;-72
2021/06/04 06:41:59;;;;;;;47.28;36.42;;;22.60;99.90;;;23.00;64.42;102040.50;5113991;28;20055;-71
2021/06/04 06:44:28;;;;;;;50.08;38.03;;;22.70;99.90;;;23.05;64.29;102029.56;5114052;28;20047;-72
2021/06/04 06:46:56;;;;;;;51.78;37.63;;;22.80;99.90;;;23.06;64.50;102031.28;5113651;28;20078;-67
2021/06/04 06:49:25;;;;;;;52.33;37.55;;;22.70;99.90;;;23.04;64.83;102046.66;5113652;28;20059;-68
2021/06/04 06:51:55;;;;;;;48.78;33.83;;;22.70;99.90;;;23.17;65.53;102039.91;5095310;28;20104;-64
2021/06/04 06:54:26;;;;;;;44.03;34.92;;;22.70;99.90;;;23.32;65.92;102039.34;5095230;28;20139;-68
2021/06/04 06:56:58;;;;;;;55.20;38.25;;;22.90;99.90;;;23.33;64.84;102029.38;5113287;28;20146;-67
2021/06/04 06:59:29;;;;;;;53.40;37.08;;;22.90;99.90;;;23.56;64.20;102043.78;5113695;28;20039;-67
2021/06/04 07:01:59;;;;;;;50.55;35.55;;;23.20;99.90;;;23.64;64.42;102051.56;5113819;28;20047;-68
2021/06/04 07:04:27;;;;;;;44.35;32.80;;;23.30;99.90;;;23.67;63.91;102043.38;5113164;28;20047;-65
2021/06/04 07:06:56;;;;;;;45.13;31.63;;;23.30;99.90;;;23.78;63.94;102054.63;5113211;28;20100;-65
2021/06/04 07:09:26;;;;;;;43.67;30.55;;;23.50;99.90;;;23.82;62.93;102062.56;5113125;28;20065;-66
2021/06/04 07:11:56;;;;;;;41.55;29.55;;;23.60;99.90;;;24.09;62.59;102060.56;5113789;28;20058;-67
2021/06/04 07:14:31;;;;;;;39.38;29.00;;;23.70;99.90;;;23.59;61.81;101957.22;5113020;28;20051;-65
2021/06/04 07:16:59;;;;;;;39.08;28.70;;;23.90;99.90;;;24.26;61.76;102065.25;5094923;28;20173;-63
2021/06/04 07:19:28;;;;;;;35.90;29.35;;;23.90;99.90;;;24.33;61.41;102042.44;5113542;28;20434;-66
2021/06/04 07:21:57;;;;;;;42.17;30.30;;;24.10;99.90;;;24.39;60.82;102050.31;5113528;28;20040;-65
2021/06/04 07:24:25;;;;;;;43.45;29.45;;;24.20;99.90;;;24.61;60.74;102060.13;5113312;28;20199;-66
2021/06/04 07:26:58;;;;;;;37.10;30.08;;;24.30;99.90;;;24.70;60.80;102070.53;5112799;28;20096;-64
2021/06/04 07:29:32;;;;;;;43.17;31.85;;;24.40;99.90;;;24.71;60.81;102072.31;5112903;28;20055;-66
2021/06/04 07:32:01;;;;;;;31.30;23.77;;;24.40;99.90;;;24.82;60.85;102074.56;5113073;28;20086;-66
2021/06/04 07:34:29;;;;;;;25.52;17.98;;;24.50;99.90;;;24.90;60.03;102070.59;5113121;28;20043;-67
2021/06/04 07:37:00;;;;;;;26.27;17.77;;;24.60;99.90;;;24.78;59.60;102041.34;5113120;28;20168;-67
2021/06/04 07:39:32;;;;;;;19.75;16.38;;;24.70;99.90;;;25.08;57.97;102074.28;5112680;28;20044;-67
2021/06/04 07:42:03;;;;;;;20.02;16.23;;;24.80;99.90;;;25.21;57.48;102083.63;5094289;28;20046;-64
2021/06/04 07:44:32;;;;;;;;;;;24.90;99.90;;;25.37;56.88;102081.09;5113427;28;20054;-66
2021/06/04 07:47:00;;;;;;;23.13;17.17;;;25.10;99.90;;;25.53;56.92;102083.03;5112669;28;19924;-67
2021/06/04 07:49:29;;;;;;;25.95;18.52;;;25.20;99.90;;;25.68;57.21;102084.16;5094643;28;20071;-66
2021/06/04 07:51:59;;;;;;;27.52;20.85;;;25.30;99.90;;;25.69;56.16;102075.94;5112904;28;20050;-64
2021/06/04 07:54:31;;;;;;;25.77;17.17;;;25.40;99.90;;;25.67;56.13;102061.56;5112555;28;20059;-64
2021/06/04 07:57:00;;;;;;;22.40;17.17;;;25.50;99.90;;;25.82;56.42;102079.81;5094101;28;20055;-65
2021/06/04 07:59:28;;;;;;;23.25;18.60;;;25.50;99.90;;;25.42;55.97;102011.31;5112488;28;20040;-64
2021/06/04 08:01:57;;;;;;;22.48;17.08;;;25.60;99.90;;;25.89;55.11;102077.69;5112374;28;20518;-66
2021/06/04 08:04:25;;;;;;;25.20;17.52;;;25.60;99.90;;;25.92;55.29;102082.94;5112667;28;20039;-69
2021/06/04 08:06:54;;;;;;;23.63;16.38;;;25.60;99.90;;;26.01;55.23;102076.22;5112459;28;20044;-69
2021/06/04 08:09:22;;;;;;;22.30;16.75;;;25.70;99.90;;;26.11;53.97;102078.44;5112657;28;20054;-69
2021/06/04 08:11:56;;;;;;;20.30;14.52;;;25.80;99.90;;;26.24;54.72;102071.44;5094346;28;20047;-66
2021/06/04 08:14:26;;;;;;;20.75;13.27;;;26.00;99.90;;;26.13;54.09;102073.78;5112516;28;20075;-64
2021/06/04 08:16:58;;;;;;;14.90;12.15;;;25.90;99.90;;;25.77;52.22;102035.78;5112244;28;20047;-66
2021/06/04 08:19:29;;;;;;;14.55;10.75;;;25.80;99.90;;;26.09;53.93;102068.63;5112840;28;20392;-65
2021/06/04 08:21:58;;;;;;;17.05;12.70;;;25.80;99.90;;;25.90;53.64;102068.59;5112188;28;20042;-65
2021/06/04 08:24:29;;;;;;;16.52;12.50;;;25.60;99.90;;;26.08;54.45;102069.53;5112559;28;20043;-65
2021/06/04 08:27:05;;;;;;;20.55;13.52;;;25.70;99.90;;;26.11;54.43;102061.28;5112186;28;20405;-76
2021/06/04 08:29:33;;;;;;;19.55;13.13;;;25.80;99.90;;;26.21;54.14;102058.00;5112388;28;20134;-74
2021/06/04 08:32:05;;;;;;;15.75;12.63;;;26.00;99.90;;;26.36;54.36;102069.94;5112410;28;20385;-73
2021/06/04 08:34:34;;;;;;;15.95;12.25;;;26.10;99.90;;;26.49;53.71;102079.22;5094019;28;20205;-74
2021/06/04 08:37:02;;;;;;;20.48;12.80;;;26.20;99.90;;;26.51;53.75;102074.56;5094154;28;20048;-74
2021/06/04 08:39:32;;;;;;;17.08;12.55;;;26.20;99.90;;;26.71;53.49;102080.75;5112072;28;20102;-74
2021/06/04 08:42:14;;;;;;;17.23;11.90;;;26.40;99.90;;;26.89;51.53;102073.50;5112375;28;20055;-75
2021/06/04 08:44:52;;;;;;;15.82;12.52;;;26.60;99.90;;;26.99;51.32;102069.31;5112102;28;20051;-75
2021/06/04 08:47:25;;;;;;;21.85;13.30;;;26.70;99.90;;;26.85;52.03;102057.44;5094076;28;20051;-75
2021/06/04 08:50:27;;;;;;;17.70;12.98;;;26.70;99.90;;;27.12;51.73;102078.56;5094194;28;20059;-75
2021/06/04 08:53:02;;;;;;;18.92;13.63;;;26.80;99.90;;;27.15;51.87;102067.56;5112411;28;20122;-75
2021/06/04 08:55:38;;;;;;;20.45;13.57;;;27.00;99.90;;;27.24;49.84;102069.75;5115886;28;20100;-76
2021/06/04 08:58:19;;;;;;;18.65;13.00;;;27.10;99.90;;;26.85;51.58;102000.41;5115747;28;20388;-75
2021/06/04 09:00:55;;;;;;;17.75;12.20;;;27.10;99.90;;;27.46;50.51;102092.13;5116221;28;20055;-75
2021/06/04 09:03:31;;;;;;;23.27;13.50;;;27.20;99.90;;;27.42;50.53;102074.22;5097671;28;20061;-75
2021/06/04 09:06:02;;;;;;;19.02;13.52;;;27.30;99.90;;;27.64;50.11;102092.94;5097309;28;20071;-75
2021/06/04 09:08:33;;;;;;;17.95;13.27;;;27.40;99.90;;;27.71;50.41;102096.19;5115851;28;20059;-75
2021/06/04 09:11:06;;;;;;;20.70;12.20;;;27.40;99.90;;;27.70;50.22;102094.44;5115669;28;20105;-75
2021/06/04 09:13:37;;;;;;;16.80;11.23;;;27.40;99.90;;;27.91;49.92;102090.50;5115564;28;20040;-75
2021/06/04 09:16:12;;;;;;;18.30;13.25;;;27.60;99.90;;;27.74;48.27;102074.28;5115420;28;20040;-75
2021/06/04 09:18:49;;;;;;;21.40;11.90;;;27.60;99.90;;;27.62;49.19;102075.84;5115831;28;20077;-75
2021/06/04 09:21:23;;;;;;;19.30;12.98;;;27.40;99.90;;;27.47;50.71;102083.00;5115776;28;20055;-75
2021/06/04 09:23:52;;;;;;;22.63;12.98;;;27.20;99.90;;;26.95;52.31;102081.31;5115293;28;20082;-76
2021/06/04 09:26:24;;;;;;;18.77;12.40;;;26.70;99.90;;;27.18;52.23;102078.25;5115510;28;20097;-75
2021/06/04 09:29:16;;;;;;;24.38;13.65;;;26.80;99.90;;;27.10;52.12;102077.78;5115243;28;20058;-75
2021/06/04 09:31:48;;;;;;;28.98;13.05;;;26.80;99.90;;;26.83;52.82;102054.78;5097252;28;20043;-74
2021/06/04 09:34:33;;;;;;;21.27;12.43;;;26.60;99.90;;;26.35;52.94;101975.91;5115470;28;20112;-75
2021/06/04 09:37:06;;;;;;;19.85;11.05;;;26.70;99.90;;;26.67;52.23;102078.28;5115515;28;20130;-75
2021/06/04 09:39:39;;;;;;;19.17;11.40;;;26.50;99.90;;;26.62;52.31;102083.94;5114911;28;20192;-75
2021/06/04 09:42:18;;;;;;;16.08;11.32;;;26.40;99.90;;;26.82;52.90;102077.50;5096860;28;20044;-75
2021/06/04 09:44:57;;;;;;;17.58;10.82;;;26.50;99.90;;;26.60;53.31;102074.09;5097106;28;20439;-75
2021/06/04 09:47:36;;;;;;;16.98;10.68;;;26.30;99.90;;;26.76;53.16;102066.94;5096665;28;20451;-74
2021/06/04 09:50:22;;;;;;;16.30;11.55;;;26.40;99.90;;;27.06;51.97;102070.75;5096836;28;20056;-75
2021/06/04 09:53:06;;;;;;;19.02;13.30;;;26.70;99.90;;;26.70;52.17;102030.13;5114746;28;20105;-75
2021/06/04 09:55:38;;;;;;;15.52;11.98;;;26.70;99.90;;;27.07;51.38;102067.09;5096292;28;20515;-75
2021/06/04 09:58:22;;;;;;;19.50;11.57;;;26.70;99.90;;;26.93;52.57;102052.47;5114383;28;20054;-75
2021/06/04 10:01:09;;;;;;;15.02;10.40;;;26.70;99.90;;;27.18;51.40;102056.50;5114837;28;20046;-75
2021/06/04 10:03:51;;;;;;;16.45;10.43;;;26.80;99.90;;;27.47;51.60;102066.69;5114863;28;20044;-75
2021/06/04 10:06:41;;;;;;;26.08;14.57;;;27.20;99.90;;;27.51;50.08;102070.09;5096229;28;20377;-75
2021/06/04 10:09:30;;;;;;;20.23;14.07;;;27.30;99.90;;;27.66;50.72;102042.94;5114773;28;20036;-75
2021/06/04 10:12:03;;;;;;;17.45;14.05;;;27.40;99.90;;;27.74;49.78;102052.50;5114756;28;20047;-75
2021/06/04 10:14:48;;;;;;;23.58;13.88;;;27.50;99.90;;;27.86;50.02;102074.44;5114508;28;20039;-75
2021/06/04 10:17:59;;;;;;;20.20;14.10;;;27.60;99.90;;;27.20;50.33;102057.28;5114605;28;20389;-74
2021/06/04 10:20:40;;;;;;;18.33;12.15;;;27.30;99.90;;;27.30;52.08;102057.66;5114117;28;20475;-74
2021/06/04 10:23:17;;;;;;;20.60;14.43;;;27.00;99.90;;;26.91;52.12;102046.22;5114867;28;20051;-75
2021/06/04 10:25:52;;;;;;;23.27;14.57;;;26.60;99.90;;;25.78;53.53;102048.38;5095992;28;20055;-74